Pagrindinis puslapis
METAR-TAF:

METAR-TAF

Oro uostai :

Elim, Aliaska, Jungtinės Amerikos Valstijos

platuma: 64-36-54N, ilguma: 162-16-14W, Aukštis: 49 m

Dabartinis oras

Ataskaita buvo paskelbta 19 minutes, ne 20:56 UTC
Vėjas 5 kt iš Rytų/Pietryčių
Temperatūra 5°C
Drėgmė 70%
Slėgis 997 hPa
Matomumas: 16.1 km
Giedras dangus

METAR: PFEL 212056Z AUTO 12005KT 10SM CLR 05/00 A2945 RMK AO2 PRESFR SLP974 T00500000 50000

Laikas: 13:15 (21:15 UTC)


TAF: trūkstamas

Orai ataskaitas ir orų prognozės (METAR, TAF).

turimą stotys yra geltonos ir raudonos taškus žemėlapyje.

Perkelti pele per norėdami pamatyti stoties vardą.

Tada spustelėkite, norėdami matyti oro stebėjimo ir prognozės.

Norėdami pakeisti žemėlapį: spustelėkite ant žalios mygtukų su juodo kryžiaus žemyn,; žalią mygtuką su brūkšneliu, jei norite nutolinti; arba žalių rodyklių gretimoms žemėlapius.


METAR-TAF: